Time;durP1;ratioP1;P1;durP2;ratioP2;P2;SDS_P1;SDS_P2;PMS_P1;PMS_P2;Temp;Humidity;BMP_temperature;BMP_pressure;BME280_temperature;BME280_humidity;BME280_pressure;Samples;Min_cycle;Max_cycle;Signal;HPM_P1;HPM_P2
2023/03/11 00:00:12;;;;;;;2.20;1.63;;;6.20;52.60;;;;;;5045585;28;20447;-89
2023/03/11 00:02:40;;;;;;;2.87;1.93;;;6.10;52.20;;;;;;5054908;28;20475;-88
2023/03/11 00:05:08;;;;;;;1.53;1.40;;;6.00;53.40;;;;;;5068892;28;20452;-86
2023/03/11 00:07:36;;;;;;;2.20;1.60;;;6.20;53.70;;;;;;5045560;28;20454;-88
2023/03/11 00:10:04;;;;;;;2.73;1.83;;;6.40;52.90;;;;;;5055366;28;20439;-86
2023/03/11 00:12:31;;;;;;;5.57;2.67;;;6.50;52.70;;;;;;5028892;28;20501;-86
2023/03/11 00:14:58;;;;;;;2.17;1.97;;;6.40;52.60;;;;;;5037599;28;20480;-86
2023/03/11 00:17:24;;;;;;;1.33;1.23;;;6.40;53.20;;;;;;5038109;28;20451;-86
2023/03/11 00:19:53;;;;;;;2.47;1.23;;;6.50;53.10;;;;;;5052222;28;20462;-84
2023/03/11 00:22:20;;;;;;;1.50;1.27;;;6.30;53.40;;;;;;5033819;28;20448;-86
2023/03/11 00:24:47;;;;;;;1.67;1.23;;;6.40;53.90;;;;;;5037655;28;20463;-86
2023/03/11 00:27:14;;;;;;;1.40;1.20;;;6.40;53.40;;;;;;5021923;28;20462;-86
2023/03/11 00:29:40;;;;;;;2.07;1.43;;;6.40;53.70;;;;;;5065925;28;20890;-86
2023/03/11 00:32:08;;;;;;;1.20;1.10;;;6.40;53.90;;;;;;5036767;28;20444;-86
2023/03/11 00:34:37;;;;;;;10.13;2.27;;;6.40;53.70;;;;;;5057318;28;20449;-85
2023/03/11 00:37:05;;;;;;;1.60;1.50;;;6.40;54.30;;;;;;5038192;28;20459;-85
2023/03/11 00:39:32;;;;;;;9.80;4.60;;;6.30;54.40;;;;;;5034887;28;20969;-85
2023/03/11 00:41:59;;;;;;;1.70;1.00;;;6.50;55.20;;;;;;5024872;28;20466;-87
2023/03/11 00:44:26;;;;;;;1.30;1.20;;;6.40;54.40;;;;;;5025798;28;20552;-87
2023/03/11 00:46:53;;;;;;;3.63;2.13;;;6.20;54.90;;;;;;5026691;28;20451;-85
2023/03/11 00:49:20;;;;;;;3.60;2.40;;;6.20;55.10;;;;;;5044574;28;20652;-86
2023/03/11 00:51:47;;;;;;;2.73;1.77;;;6.10;55.30;;;;;;5031245;28;20781;-86
2023/03/11 00:54:15;;;;;;;1.07;0.97;;;6.10;55.70;;;;;;5041293;28;20475;-84
2023/03/11 00:56:42;;;;;;;2.03;1.77;;;6.10;55.80;;;;;;5062080;28;20544;-86
2023/03/11 00:59:09;;;;;;;2.27;1.40;;;5.90;56.40;;;;;;5028728;28;20562;-85
2023/03/11 01:01:36;;;;;;;7.10;4.20;;;6.10;56.10;;;;;;5028783;28;20459;-86
2023/03/11 01:04:03;;;;;;;1.93;1.30;;;6.10;56.20;;;;;;5062922;28;20472;-85
2023/03/11 01:06:30;;;;;;;1.63;1.40;;;6.10;55.50;;;;;;5058740;28;20453;-87
2023/03/11 01:08:57;;;;;;;1.80;1.57;;;5.90;55.60;;;;;;5039203;28;20460;-86
2023/03/11 01:11:26;;;;;;;1.50;1.33;;;5.80;56.40;;;;;;5022072;28;20449;-86
2023/03/11 01:13:53;;;;;;;1.40;1.30;;;5.70;56.20;;;;;;5054505;28;20475;-85
2023/03/11 01:16:21;;;;;;;1.53;1.43;;;6.00;56.70;;;;;;5034240;28;20521;-86
2023/03/11 01:18:49;;;;;;;1.40;1.30;;;6.00;56.30;;;;;;5071474;28;20451;-86
2023/03/11 01:21:16;;;;;;;1.47;1.37;;;6.20;56.10;;;;;;5069907;28;20458;-86
2023/03/11 01:23:43;;;;;;;1.67;1.57;;;6.10;56.60;;;;;;5055642;28;20471;-87
2023/03/11 01:26:11;;;;;;;1.47;1.30;;;6.40;55.90;;;;;;5038321;28;20452;-85
2023/03/11 01:28:39;;;;;;;6.70;2.50;;;6.40;54.50;;;;;;5053830;28;20457;-86
2023/03/11 01:31:06;;;;;;;1.90;1.63;;;6.00;55.40;;;;;;5039148;28;20456;-86
2023/03/11 01:33:33;;;;;;;2.17;1.60;;;5.90;55.60;;;;;;5062060;28;20481;-86
2023/03/11 01:36:00;;;;;;;1.47;1.37;;;5.90;54.90;;;;;;5067843;28;20526;-86
2023/03/11 01:38:28;;;;;;;2.80;1.70;;;5.60;55.90;;;;;;5054614;28;20451;-87
2023/03/11 01:40:55;;;;;;;1.73;1.43;;;5.50;56.60;;;;;;5030263;28;20460;-86
2023/03/11 01:43:53;;;;;;;1.80;1.60;;;5.70;56.70;;;;;;5046241;28;20503;-87
2023/03/11 01:46:36;;;;;;;1.63;1.43;;;5.70;55.60;;;;;;5030287;28;20446;-87
2023/03/11 01:49:05;;;;;;;2.37;1.40;;;5.50;54.80;;;;;;5031944;28;20524;-86
2023/03/11 01:51:38;;;;;;;2.67;1.20;;;5.50;54.90;;;;;;5058547;28;20483;-86
2023/03/11 01:54:11;;;;;;;2.70;1.30;;;5.50;54.80;;;;;;5029599;28;20557;-85
2023/03/11 01:56:39;;;;;;;1.50;1.40;;;5.60;54.40;;;;;;5030648;28;20563;-86
2023/03/11 01:59:08;;;;;;;1.17;1.07;;;5.70;54.90;;;;;;5074904;28;20502;-86
2023/03/11 02:01:38;;;;;;;1.20;1.10;;;5.50;54.30;;;;;;5065644;28;20448;-86
2023/03/11 02:04:05;;;;;;;3.10;1.10;;;5.50;54.20;;;;;;5048146;28;20555;-86
2023/03/11 02:06:33;;;;;;;1.10;1.00;;;5.60;54.20;;;;;;5042649;28;20527;-87
2023/03/11 02:09:00;;;;;;;1.37;1.10;;;6.00;54.30;;;;;;5030473;28;20451;-87
2023/03/11 02:11:30;;;;;;;1.20;1.10;;;5.90;52.50;;;;;;5046016;28;20445;-87
2023/03/11 02:14:01;;;;;;;1.10;1.00;;;6.00;52.20;;;;;;5040885;28;20828;-87
2023/03/11 02:16:30;;;;;;;1.13;1.03;;;5.90;52.40;;;;;;5056480;28;20472;-87
2023/03/11 02:19:00;;;;;;;5.90;2.00;;;6.10;52.40;;;;;;5037494;28;20778;-86
2023/03/11 02:21:29;;;;;;;4.33;1.37;;;6.10;52.60;;;;;;5041594;28;22122;-85
2023/03/11 02:24:07;;;;;;;1.30;1.20;;;6.00;51.70;;;;;;5026774;28;20813;-86
2023/03/11 02:26:39;;;;;;;3.77;1.53;;;5.70;52.10;;;;;;5063844;28;20471;-86
2023/03/11 02:29:10;;;;;;;1.70;1.30;;;5.50;52.60;;;;;;5048187;28;20461;-86
2023/03/11 02:31:40;;;;;;;2.37;1.10;;;5.70;53.00;;;;;;5049379;28;20448;-87
2023/03/11 02:34:13;;;;;;;6.00;1.40;;;5.60;52.40;;;;;;5047016;28;21057;-86
2023/03/11 02:36:42;;;;;;;1.57;1.07;;;5.50;52.30;;;;;;5047341;28;20467;-84
2023/03/11 02:39:12;;;;;;;1.20;1.10;;;5.50;52.20;;;;;;5045022;28;20455;-86
2023/03/11 02:41:43;;;;;;;5.13;1.93;;;5.70;53.00;;;;;;5023307;28;20770;-84
2023/03/11 02:44:14;;;;;;;2.50;1.07;;;5.70;52.60;;;;;;5051087;28;20464;-85
2023/03/11 02:46:43;;;;;;;0.90;0.80;;;5.90;52.50;;;;;;5039035;28;20452;-87
2023/03/11 02:49:12;;;;;;;1.10;1.00;;;6.00;52.20;;;;;;5057835;28;20453;-85
2023/03/11 02:51:39;;;;;;;4.87;1.70;;;6.00;51.90;;;;;;5031851;28;20819;-86
2023/03/11 02:54:06;;;;;;;4.23;1.00;;;6.10;52.30;;;;;;5046198;28;20512;-87
2023/03/11 02:56:35;;;;;;;2.03;1.47;;;6.00;51.20;;;;;;5029282;28;20567;-85
2023/03/11 02:59:02;;;;;;;1.20;1.10;;;6.10;51.90;;;;;;5038661;28;20455;-87
2023/03/11 03:01:31;;;;;;;1.33;1.10;;;5.80;51.30;;;;;;5044425;28;20501;-86
2023/03/11 03:03:58;;;;;;;2.07;1.50;;;5.70;51.90;;;;;;5049622;28;20579;-86
2023/03/11 03:06:27;;;;;;;1.50;1.13;;;5.70;53.20;;;;;;5046295;28;20525;-87
2023/03/11 03:08:55;;;;;;;6.20;1.17;;;6.00;52.40;;;;;;5037862;28;20449;-86
2023/03/11 03:11:22;;;;;;;1.33;1.00;;;6.20;52.20;;;;;;5025593;28;20452;-86
2023/03/11 03:13:49;;;;;;;2.33;1.37;;;6.30;51.80;;;;;;5038796;28;20475;-84
2023/03/11 03:16:16;;;;;;;2.43;1.20;;;6.40;51.80;;;;;;5025800;28;20528;-87
2023/03/11 03:18:45;;;;;;;3.33;1.53;;;6.20;51.50;;;;;;5030587;28;20439;-86
2023/03/11 03:21:12;;;;;;;2.00;1.00;;;6.10;51.10;;;;;;5046033;28;20523;-85
2023/03/11 03:23:38;;;;;;;2.73;1.20;;;6.10;51.80;;;;;;5021051;28;21010;-87
2023/03/11 03:26:06;;;;;;;1.70;1.37;;;6.20;52.40;;;;;;5047826;28;20453;-87
2023/03/11 03:28:36;;;;;;;1.83;1.13;;;6.30;52.10;;;;;;5039784;28;20535;-86
2023/03/11 03:31:04;;;;;;;1.33;0.93;;;6.40;51.90;;;;;;5054543;28;20772;-87
2023/03/11 03:33:32;;;;;;;2.03;1.30;;;6.30;51.00;;;;;;5056507;28;20475;-86
2023/03/11 03:36:01;;;;;;;3.43;1.10;;;6.20;52.10;;;;;;5045718;28;20586;-87
2023/03/11 03:38:36;;;;;;;1.70;1.17;;;6.10;51.40;;;;;;5039226;28;20448;-86
2023/03/11 03:41:03;;;;;;;1.20;1.03;;;6.10;51.50;;;;;;5045766;28;20447;-86
2023/03/11 03:43:30;;;;;;;4.00;1.60;;;6.10;51.80;;;;;;5045903;28;20502;-86
2023/03/11 03:45:58;;;;;;;1.33;1.23;;;6.00;51.80;;;;;;5056972;28;20805;-85
2023/03/11 03:48:29;;;;;;;15.20;1.50;;;5.80;52.00;;;;;;5045854;28;20574;-86
2023/03/11 03:50:56;;;;;;;2.10;1.43;;;5.80;53.10;;;;;;5052307;28;20462;-86
2023/03/11 03:53:24;;;;;;;5.80;1.60;;;5.80;52.60;;;;;;5027586;28;21048;-86
2023/03/11 03:55:53;;;;;;;1.37;1.00;;;5.80;53.20;;;;;;5053810;28;20555;-85
2023/03/11 03:58:20;;;;;;;1.80;1.40;;;5.80;52.70;;;;;;5045012;28;20652;-87
2023/03/11 04:00:47;;;;;;;1.97;1.63;;;5.80;52.90;;;;;;5051287;28;20448;-86
2023/03/11 04:03:15;;;;;;;1.43;1.10;;;5.80;53.20;;;;;;5037838;28;20472;-86
2023/03/11 04:05:51;;;;;;;1.30;1.20;;;5.70;53.20;;;;;;5028899;28;20440;-85
2023/03/11 04:08:18;;;;;;;4.87;2.00;;;5.80;53.70;;;;;;5035143;28;20663;-86
2023/03/11 04:10:56;;;;;;;2.70;1.60;;;5.80;53.50;;;;;;5053802;28;20452;-86
2023/03/11 04:13:24;;;;;;;3.03;1.40;;;6.00;53.20;;;;;;5033153;28;20476;-84
2023/03/11 04:15:50;;;;;;;5.77;1.30;;;6.00;52.80;;;;;;5063521;28;20443;-86
2023/03/11 04:18:18;;;;;;;1.83;1.73;;;6.10;53.40;;;;;;5026002;28;20578;-86
2023/03/11 04:20:45;;;;;;;1.60;1.50;;;5.90;53.00;;;;;;5054619;28;20879;-84
2023/03/11 04:23:14;;;;;;;2.10;1.90;;;5.80;53.50;;;;;;5043441;28;20525;-86
2023/03/11 04:25:41;;;;;;;4.00;1.77;;;5.70;53.60;;;;;;5044040;28;20441;-87
2023/03/11 04:28:10;;;;;;;1.73;1.30;;;5.70;53.80;;;;;;5029713;28;20484;-85
2023/03/11 04:30:38;;;;;;;3.83;1.20;;;5.80;53.80;;;;;;5043531;28;20551;-87
2023/03/11 04:33:05;;;;;;;2.30;1.90;;;5.90;54.30;;;;;;5043790;28;20887;-86
2023/03/11 04:35:32;;;;;;;2.50;1.40;;;5.90;53.20;;;;;;5041958;28;20451;-85
2023/03/11 04:38:00;;;;;;;1.63;1.40;;;5.90;53.80;;;;;;5060449;28;20472;-86
2023/03/11 04:40:27;;;;;;;6.17;1.27;;;5.90;53.70;;;;;;5043401;28;20480;-85
2023/03/11 04:42:54;;;;;;;7.73;1.90;;;5.90;53.60;;;;;;5047936;28;20523;-87
2023/03/11 04:45:23;;;;;;;2.03;1.83;;;6.10;53.20;;;;;;5050425;28;20440;-86
2023/03/11 04:47:53;;;;;;;1.43;1.33;;;6.10;52.60;;;;;;5048779;28;20861;-86
2023/03/11 04:50:21;;;;;;;1.90;1.37;;;6.10;52.50;;;;;;5019995;28;20816;-86
2023/03/11 04:52:48;;;;;;;3.70;1.50;;;5.90;52.60;;;;;;5036659;28;20471;-86
2023/03/11 04:55:16;;;;;;;1.30;1.20;;;5.80;52.80;;;;;;5039148;28;20459;-86
2023/03/11 04:57:44;;;;;;;1.90;1.70;;;5.70;52.90;;;;;;5030353;28;20526;-85
2023/03/11 05:00:15;;;;;;;1.50;1.37;;;5.60;53.70;;;;;;5041689;28;20486;-87
2023/03/11 05:02:47;;;;;;;4.03;1.40;;;5.70;53.60;;;;;;5022146;28;20451;-86
2023/03/11 05:05:14;;;;;;;3.93;1.37;;;5.90;53.50;;;;;;5038664;28;20437;-87
2023/03/11 05:07:42;;;;;;;11.00;1.70;;;6.00;53.70;;;;;;5058631;28;21001;-86
2023/03/11 05:10:11;;;;;;;2.80;1.60;;;6.00;53.10;;;;;;5067314;28;20437;-86
2023/03/11 05:12:39;;;;;;;1.70;1.50;;;6.20;53.60;;;;;;5052949;28;20473;-86
2023/03/11 05:15:07;;;;;;;1.87;1.73;;;6.40;53.00;;;;;;5042845;28;22118;-86
2023/03/11 05:17:34;;;;;;;6.53;1.67;;;6.40;52.50;;;;;;5033254;28;20483;-87
2023/03/11 05:20:06;;;;;;;3.37;1.30;;;6.20;52.50;;;;;;5035889;28;20575;-85
2023/03/11 05:22:34;;;;;;;4.10;1.80;;;6.30;52.80;;;;;;5041379;28;20467;-85
2023/03/11 05:25:01;;;;;;;5.07;1.60;;;6.30;53.40;;;;;;5023087;28;20459;-86
2023/03/11 05:27:29;;;;;;;4.87;1.33;;;6.40;52.50;;;;;;5051530;28;20452;-86
2023/03/11 05:29:57;;;;;;;1.90;1.80;;;6.20;52.50;;;;;;5026995;28;20957;-86
2023/03/11 05:32:26;;;;;;;2.23;1.80;;;6.10;53.20;;;;;;5038138;28;20461;-86
2023/03/11 05:34:54;;;;;;;1.80;1.50;;;6.30;53.20;;;;;;5026665;28;20740;-87
2023/03/11 05:37:22;;;;;;;3.20;1.37;;;6.50;52.70;;;;;;5039380;28;20468;-86
2023/03/11 05:39:51;;;;;;;3.63;1.80;;;6.50;52.70;;;;;;5048251;28;20534;-86
2023/03/11 05:42:19;;;;;;;1.73;1.60;;;6.50;52.30;;;;;;5043954;28;20487;-86
2023/03/11 05:44:47;;;;;;;1.33;1.23;;;6.20;52.30;;;;;;5032241;28;20480;-87
2023/03/11 05:47:15;;;;;;;4.70;2.00;;;6.10;53.10;;;;;;5043629;28;20457;-86
2023/03/11 05:49:43;;;;;;;1.87;1.67;;;6.30;53.10;;;;;;5063336;28;20483;-87
2023/03/11 05:52:10;;;;;;;2.77;1.40;;;6.40;53.00;;;;;;5062206;28;20964;-84
2023/03/11 05:54:38;;;;;;;2.83;1.47;;;6.40;52.50;;;;;;5048640;28;21239;-89
2023/03/11 05:57:05;;;;;;;1.50;1.40;;;6.30;52.20;;;;;;5062604;28;20475;-87
2023/03/11 05:59:34;;;;;;;5.60;2.30;;;6.50;52.90;;;;;;5041596;28;20455;-87
2023/03/11 06:02:04;;;;;;;1.30;1.20;;;6.40;51.90;;;;;;5023828;28;20527;-87
2023/03/11 06:04:31;;;;;;;1.50;1.40;;;6.30;52.40;;;;;;5058976;28;20472;-87
2023/03/11 06:07:00;;;;;;;3.63;1.70;;;6.10;52.90;;;;;;5071089;28;21231;-86
2023/03/11 06:09:30;;;;;;;2.10;1.57;;;6.20;52.90;;;;;;5049625;28;20459;-86
2023/03/11 06:11:59;;;;;;;3.37;2.70;;;6.40;53.00;;;;;;5063510;28;20554;-86
2023/03/11 06:14:34;;;;;;;2.60;1.63;;;6.50;52.70;;;;;;5045681;28;21274;-85
2023/03/11 06:17:02;;;;;;;10.60;2.60;;;6.50;52.20;;;;;;5038079;28;20464;-87
2023/03/11 06:19:30;;;;;;;5.30;2.30;;;6.60;52.70;;;;;;5046395;28;20448;-87
2023/03/11 06:21:57;;;;;;;3.93;2.00;;;6.50;52.20;;;;;;5025021;28;20444;-85
2023/03/11 06:24:24;;;;;;;2.63;2.00;;;6.70;52.70;;;;;;5046672;28;20469;-86
2023/03/11 06:26:52;;;;;;;4.10;2.70;;;6.60;52.00;;;;;;5049987;28;20576;-85
2023/03/11 06:29:23;;;;;;;4.23;1.63;;;6.50;52.40;;;;;;5063581;28;20452;-87
2023/03/11 06:31:50;;;;;;;6.13;3.00;;;6.60;52.40;;;;;;5047752;28;20448;-86
2023/03/11 06:34:17;;;;;;;3.13;2.23;;;6.80;52.10;;;;;;5047395;28;20563;-86
2023/03/11 06:36:45;;;;;;;2.40;1.70;;;6.80;51.70;;;;;;5040727;28;20461;-87
2023/03/11 06:39:14;;;;;;;4.40;2.47;;;6.70;51.50;;;;;;5044599;28;20452;-86
2023/03/11 06:41:41;;;;;;;4.20;2.30;;;6.60;51.50;;;;;;5029189;28;20468;-86
2023/03/11 06:44:10;;;;;;;2.70;1.70;;;6.70;52.30;;;;;;5046805;28;20474;-87
2023/03/11 06:46:40;;;;;;;3.43;1.80;;;6.80;51.70;;;;;;5037219;28;20459;-86
2023/03/11 06:49:07;;;;;;;12.03;5.80;;;6.90;52.30;;;;;;5069797;28;20448;-87
2023/03/11 06:51:34;;;;;;;15.10;4.50;;;7.00;51.60;;;;;;5040329;28;20459;-86
2023/03/11 06:54:03;;;;;;;14.60;6.80;;;6.90;51.40;;;;;;5030855;28;20514;-87
2023/03/11 06:56:32;;;;;;;3.33;1.90;;;7.00;51.70;;;;;;5056985;28;20460;-87
2023/03/11 06:59:04;;;;;;;3.37;2.13;;;7.00;51.00;;;;;;5040608;28;20539;-86
2023/03/11 07:01:32;;;;;;;8.97;2.53;;;6.90;50.80;;;;;;5039035;28;21448;-86
2023/03/11 07:04:03;;;;;;;8.07;3.50;;;6.90;51.10;;;;;;5056556;28;20644;-86
2023/03/11 07:06:30;;;;;;;9.67;3.30;;;7.10;51.40;;;;;;5040503;28;20485;-86
2023/03/11 07:09:06;;;;;;;7.77;3.50;;;6.90;51.10;;;;;;5056827;28;20453;-86
2023/03/11 07:11:35;;;;;;;47.00;16.50;;;6.80;51.20;;;;;;5045656;28;20988;-86
2023/03/11 07:14:12;;;;;;;5.20;2.77;;;6.80;51.70;;;;;;5032300;28;20484;-86
2023/03/11 07:16:44;;;;;;;13.03;9.83;;;6.80;51.70;;;;;;5044593;28;20474;-85
2023/03/11 07:19:19;;;;;;;13.00;10.00;;;6.70;52.30;;;;;;5027392;28;20463;-88
2023/03/11 07:21:46;;;;;;;17.70;12.50;;;6.70;52.50;;;;;;5050177;28;20781;-85
2023/03/11 07:24:13;;;;;;;8.20;5.50;;;6.70;52.30;;;;;;5035253;28;20571;-85
2023/03/11 07:26:41;;;;;;;11.90;5.00;;;6.70;52.20;;;;;;5026876;28;20444;-87
2023/03/11 07:29:09;;;;;;;5.37;3.20;;;6.70;52.00;;;;;;5042791;28;20516;-85
2023/03/11 07:31:37;;;;;;;4.70;2.57;;;6.70;51.60;;;;;;5034978;28;21024;-85
2023/03/11 07:34:10;;;;;;;4.30;3.30;;;6.50;51.80;;;;;;5038232;28;21019;-85
2023/03/11 07:36:40;;;;;;;6.80;3.07;;;6.60;52.60;;;;;;5026189;28;20458;-84
2023/03/11 07:39:08;;;;;;;14.27;3.10;;;6.40;51.80;;;;;;5050809;28;20448;-86
2023/03/11 07:41:35;;;;;;;12.07;2.23;;;6.20;52.20;;;;;;5032562;28;20564;-85
2023/03/11 07:44:04;;;;;;;4.20;2.83;;;6.40;52.40;;;;;;5041192;28;20487;-84
2023/03/11 07:46:31;;;;;;;2.57;1.80;;;6.50;52.50;;;;;;5057389;28;20456;-84
2023/03/11 07:48:58;;;;;;;3.03;2.77;;;6.70;51.40;;;;;;5038841;28;20456;-84
2023/03/11 07:51:27;;;;;;;4.10;2.83;;;6.80;51.10;;;;;;5041401;28;20463;-86
2023/03/11 07:53:56;;;;;;;5.23;3.10;;;6.70;50.60;;;;;;5034544;28;21288;-83
2023/03/11 07:56:25;;;;;;;6.63;2.73;;;6.70;51.20;;;;;;5060869;28;20459;-85
2023/03/11 07:58:52;;;;;;;1.40;1.30;;;6.70;51.60;;;;;;5052456;28;20997;-85
2023/03/11 08:01:22;;;;;;;2.73;1.87;;;6.60;50.10;;;;;;5037138;28;20464;-86
2023/03/11 08:03:51;;;;;;;5.13;2.10;;;6.60;51.10;;;;;;5022410;28;20480;-86
2023/03/11 08:06:20;;;;;;;2.57;2.33;;;6.60;50.90;;;;;;5038618;28;20460;-84
2023/03/11 08:08:48;;;;;;;2.93;2.00;;;6.90;51.70;;;;;;5066372;28;22389;-85
2023/03/11 08:11:17;;;;;;;3.10;2.20;;;7.20;51.90;;;;;;5038863;28;21299;-86
2023/03/11 08:13:46;;;;;;;2.47;1.87;;;7.30;50.70;;;;;;5050653;28;20460;-85
2023/03/11 08:16:14;;;;;;;4.23;2.00;;;7.30;50.20;;;;;;5037085;28;20448;-87
2023/03/11 08:18:42;;;;;;;6.50;2.53;;;7.10;50.00;;;;;;5040097;28;20461;-88
2023/03/11 08:21:11;;;;;;;6.97;2.30;;;7.00;49.60;;;;;;5046399;28;20449;-86
2023/03/11 08:23:38;;;;;;;3.40;2.00;;;6.80;50.00;;;;;;5055638;28;20460;-86
2023/03/11 08:26:06;;;;;;;3.37;1.63;;;6.90;50.70;;;;;;5028232;28;20563;-87
2023/03/11 08:28:35;;;;;;;4.70;2.40;;;7.00;51.00;;;;;;5045412;28;20461;-86
2023/03/11 08:31:02;;;;;;;9.93;2.40;;;7.20;50.80;;;;;;5064878;28;20457;-85
2023/03/11 08:33:29;;;;;;;2.60;2.40;;;7.30;50.50;;;;;;5068075;28;20836;-85
2023/03/11 08:35:56;;;;;;;7.60;3.10;;;7.10;51.20;;;;;;5040615;28;20444;-86
2023/03/11 08:38:23;;;;;;;6.60;3.00;;;7.20;51.00;;;;;;5019567;28;20472;-86
2023/03/11 08:40:50;;;;;;;23.57;10.83;;;7.30;51.10;;;;;;5034106;28;20467;-87
2023/03/11 08:43:17;;;;;;;7.37;3.90;;;7.20;50.50;;;;;;5024517;28;20578;-86
2023/03/11 08:45:45;;;;;;;18.07;6.90;;;7.10;49.50;;;;;;5036860;28;20444;-86
2023/03/11 08:48:12;;;;;;;3.33;3.00;;;7.30;50.80;;;;;;5041677;28;20449;-88
2023/03/11 08:50:42;;;;;;;6.27;2.60;;;7.50;50.30;;;;;;5023426;28;20948;-88
2023/03/11 08:53:08;;;;;;;2.07;1.87;;;7.50;49.00;;;;;;5045043;28;20864;-87
2023/03/11 08:55:35;;;;;;;3.07;2.20;;;7.40;48.60;;;;;;5040234;28;20463;-89
2023/03/11 08:58:03;;;;;;;2.50;2.40;;;7.40;48.60;;;;;;5028826;28;21132;-87
2023/03/11 09:00:30;;;;;;;4.93;2.20;;;7.60;48.20;;;;;;5046683;28;20974;-87
2023/03/11 09:02:58;;;;;;;2.27;2.07;;;7.60;48.00;;;;;;5046036;28;20478;-86
2023/03/11 09:05:25;;;;;;;3.33;2.10;;;7.70;47.80;;;;;;5030157;28;20532;-88
2023/03/11 09:07:52;;;;;;;2.20;1.50;;;8.00;47.90;;;;;;5046840;28;20445;-87
2023/03/11 09:10:19;;;;;;;7.10;2.60;;;8.00;46.70;;;;;;5045331;28;20452;-87
2023/03/11 09:12:46;;;;;;;2.47;1.73;;;7.80;46.40;;;;;;5042376;28;20482;-87
2023/03/11 09:15:13;;;;;;;3.67;1.63;;;8.00;46.60;;;;;;5046208;28;20825;-88
2023/03/11 09:17:40;;;;;;;4.60;2.07;;;8.10;45.40;;;;;;5044023;28;20466;-86
2023/03/11 09:20:11;;;;;;;3.20;2.30;;;8.10;44.30;;;;;;5050939;28;20444;-85
2023/03/11 09:22:38;;;;;;;3.10;1.53;;;7.80;45.40;;;;;;5030956;28;20476;-86
2023/03/11 09:25:06;;;;;;;2.33;2.13;;;7.90;44.70;;;;;;5031036;28;20478;-87
2023/03/11 09:27:33;;;;;;;4.20;2.77;;;8.00;45.50;;;;;;5038683;28;20443;-86
2023/03/11 09:30:00;;;;;;;5.03;2.30;;;8.00;45.50;;;;;;5065011;28;20446;-85
2023/03/11 09:32:27;;;;;;;5.07;1.87;;;8.10;45.70;;;;;;5026771;28;20504;-88
2023/03/11 09:34:54;;;;;;;3.27;1.57;;;7.70;45.00;;;;;;5024893;28;20440;-86
2023/03/11 09:37:22;;;;;;;2.40;1.90;;;7.40;47.30;;;;;;5062973;28;20457;-88
2023/03/11 09:39:49;;;;;;;3.00;1.87;;;7.50;47.30;;;;;;5032850;28;20543;-87
2023/03/11 09:42:22;;;;;;;2.60;1.90;;;7.50;47.30;;;;;;5024480;28;21318;-87
2023/03/11 09:44:56;;;;;;;2.80;2.13;;;7.50;47.80;;;;;;5049699;28;20451;-86
2023/03/11 09:47:39;;;;;;;2.97;1.97;;;7.60;47.50;;;;;;5041858;28;20543;-88
2023/03/11 09:50:17;;;;;;;2.57;2.27;;;7.60;47.70;;;;;;5048644;28;20456;-86
2023/03/11 09:52:58;;;;;;;2.73;2.17;;;7.50;48.00;;;;;;5064684;28;21020;-88
2023/03/11 09:55:36;;;;;;;4.60;2.07;;;7.80;49.50;;;;;;5032333;28;20959;-87
2023/03/11 09:58:21;;;;;;;3.17;2.57;;;8.00;48.30;;;;;;5040971;28;20469;-88
2023/03/11 10:00:50;;;;;;;2.53;2.33;;;7.70;46.90;;;;;;5057575;28;20455;-86
2023/03/11 10:03:27;;;;;;;7.67;2.80;;;7.80;48.10;;;;;;5044074;28;20531;-86
2023/03/11 10:06:00;;;;;;;4.10;3.00;;;7.80;48.30;;;;;;5045977;28;20452;-87
2023/03/11 10:08:34;;;;;;;2.60;2.20;;;8.10;47.80;;;;;;5048271;28;20965;-87
2023/03/11 10:11:13;;;;;;;2.77;1.67;;;8.30;47.40;;;;;;5046523;28;20460;-87
2023/03/11 10:13:49;;;;;;;4.20;2.23;;;8.30;47.00;;;;;;5038647;28;20480;-87
2023/03/11 10:16:24;;;;;;;6.00;2.13;;;8.50;46.60;;;;;;5071128;28;20448;-87
2023/03/11 10:19:02;;;;;;;2.83;2.10;;;8.70;46.40;;;;;;5030418;28;20892;-89
2023/03/11 10:21:41;;;;;;;3.27;1.80;;;8.60;45.50;;;;;;5040616;28;20543;-85
2023/03/11 10:24:36;;;;;;;4.37;1.90;;;8.40;45.20;;;;;;5057778;28;20472;-88
2023/03/11 10:27:09;;;;;;;1.90;1.80;;;8.40;45.40;;;;;;5058211;28;20625;-86
2023/03/11 10:29:44;;;;;;;2.97;1.93;;;8.20;46.60;;;;;;5072351;28;20459;-88
2023/03/11 10:32:17;;;;;;;2.23;2.00;;;8.20;45.40;;;;;;5069405;28;20527;-86
2023/03/11 10:34:47;;;;;;;6.10;2.43;;;8.00;45.00;;;;;;5056387;28;20562;-88
2023/03/11 10:37:19;;;;;;;3.00;2.10;;;8.10;46.20;;;;;;5044650;28;20440;-87
2023/03/11 10:39:48;;;;;;;4.67;2.33;;;8.30;46.00;;;;;;5056718;28;20509;-87
2023/03/11 10:42:18;;;;;;;2.90;2.07;;;8.60;45.50;;;;;;5026660;28;20449;-86
2023/03/11 10:44:45;;;;;;;2.70;2.10;;;9.00;44.10;;;;;;5061223;28;20447;-86
2023/03/11 10:47:17;;;;;;;4.17;2.30;;;9.30;43.80;;;;;;5036375;28;20444;-88
2023/03/11 10:49:44;;;;;;;2.73;2.53;;;9.50;43.20;;;;;;5028664;28;20440;-87
2023/03/11 10:52:11;;;;;;;5.23;1.90;;;9.80;42.40;;;;;;5045895;28;20443;-87
2023/03/11 10:54:42;;;;;;;5.43;2.03;;;9.60;42.60;;;;;;5047203;28;20830;-87
2023/03/11 10:57:24;;;;;;;3.50;2.07;;;9.50;42.30;;;;;;5055665;28;20535;-88
2023/03/11 10:59:53;;;;;;;4.13;2.03;;;9.50;41.80;;;;;;5038139;28;20844;-87
2023/03/11 11:02:25;;;;;;;4.20;1.70;;;9.30;41.20;;;;;;5067731;28;20476;-86
2023/03/11 11:05:06;;;;;;;3.40;2.47;;;9.10;42.00;;;;;;5060239;28;20452;-87
2023/03/11 11:07:35;;;;;;;4.00;1.93;;;9.00;43.80;;;;;;5037803;28;20472;-87
2023/03/11 11:10:18;;;;;;;2.33;1.80;;;8.50;43.40;;;;;;5039155;28;20444;-86
2023/03/11 11:12:55;;;;;;;5.53;2.10;;;8.70;44.60;;;;;;5066245;28;20476;-89
2023/03/11 11:15:24;;;;;;;6.43;3.53;;;8.70;43.90;;;;;;5026861;28;20464;-89
2023/03/11 11:17:54;;;;;;;3.43;2.13;;;8.60;43.10;;;;;;5061133;28;20460;-87
2023/03/11 11:20:23;;;;;;;2.60;1.87;;;8.40;43.10;;;;;;5043918;28;20476;-87
2023/03/11 11:22:53;;;;;;;11.77;2.00;;;8.20;42.50;;;;;;5026839;28;20518;-87
2023/03/11 11:25:29;;;;;;;3.50;2.80;;;8.10;43.30;;;;;;5037488;28;20449;-88
2023/03/11 11:27:59;;;;;;;5.30;2.87;;;8.30;43.20;;;;;;5038171;28;20443;-87
2023/03/11 11:30:28;;;;;;;3.73;2.10;;;8.40;42.70;;;;;;5044362;28;20468;-87
2023/03/11 11:32:55;;;;;;;5.50;2.30;;;8.50;43.40;;;;;;5054764;28;20473;-88
2023/03/11 11:35:23;;;;;;;5.20;2.10;;;8.70;43.10;;;;;;5052627;28;20475;-88
2023/03/11 11:37:53;;;;;;;2.43;2.03;;;8.50;41.20;;;;;;5038505;28;20828;-86
2023/03/11 11:40:29;;;;;;;2.97;1.93;;;8.30;42.10;;;;;;5068434;28;20476;-86
2023/03/11 11:43:02;;;;;;;19.23;8.10;;;8.40;42.80;;;;;;5023513;28;21876;-88
2023/03/11 11:45:35;;;;;;;5.70;4.10;;;8.70;43.90;;;;;;5056716;28;20519;-87
2023/03/11 11:48:12;;;;;;;6.10;2.63;;;8.80;43.50;;;;;;5054214;28;20445;-87
2023/03/11 11:50:44;;;;;;;6.53;4.33;;;8.80;41.70;;;;;;5026530;28;20448;-86
2023/03/11 11:53:21;;;;;;;4.10;2.60;;;8.90;42.40;;;;;;5039034;28;20483;-87
2023/03/11 11:55:51;;;;;;;6.70;3.90;;;9.00;42.60;;;;;;5039419;28;20432;-88
2023/03/11 11:58:19;;;;;;;14.90;6.87;;;9.10;42.70;;;;;;5054257;28;20440;-87
2023/03/11 12:00:58;;;;;;;2.93;2.67;;;9.20;42.30;;;;;;5059253;28;20547;-88
2023/03/11 12:03:50;;;;;;;3.70;2.23;;;9.20;41.60;;;;;;5069300;28;20588;-88
2023/03/11 12:06:24;;;;;;;3.20;2.80;;;9.30;41.50;;;;;;5026002;28;20440;-88
2023/03/11 12:09:03;;;;;;;2.20;1.97;;;9.10;41.60;;;;;;5066426;28;20501;-88
2023/03/11 12:11:37;;;;;;;2.40;2.20;;;8.90;41.60;;;;;;5046556;28;20445;-88
2023/03/11 12:14:13;;;;;;;5.00;2.83;;;8.80;41.40;;;;;;5040755;28;20478;-87
2023/03/11 12:16:45;;;;;;;3.63;2.40;;;8.50;41.60;;;;;;5052666;28;20783;-87
2023/03/11 12:19:22;;;;;;;4.77;2.97;;;8.40;42.10;;;;;;5042085;28;20476;-87
2023/03/11 12:22:07;;;;;;;26.77;12.80;;;8.50;42.20;;;;;;5025041;28;20461;-88
2023/03/11 12:24:53;;;;;;;9.40;4.67;;;8.70;41.00;;;;;;5040210;28;20474;-86
2023/03/11 12:27:24;;;;;;;5.40;3.70;;;8.90;41.30;;;;;;5034309;28;20448;-88
2023/03/11 12:29:55;;;;;;;20.07;5.57;;;8.80;40.40;;;;;;5027419;28;20437;-87
2023/03/11 12:32:29;;;;;;;5.10;3.33;;;8.90;41.30;;;;;;5068385;28;20464;-89
2023/03/11 12:35:03;;;;;;;6.80;3.37;;;9.00;41.20;;;;;;5024253;28;21068;-86
2023/03/11 12:37:31;;;;;;;5.40;4.37;;;9.10;41.50;;;;;;5055116;28;20467;-87
2023/03/11 12:39:58;;;;;;;2.53;2.30;;;9.10;39.40;;;;;;5052547;28;20475;-87
2023/03/11 12:42:39;;;;;;;2.50;1.83;;;9.20;39.70;;;;;;5042657;28;20467;-87
2023/03/11 12:45:39;;;;;;;1.97;1.87;;;9.10;39.20;;;;;;5069310;28;20444;-87
2023/03/11 12:48:36;;;;;;;4.63;2.10;;;9.00;38.80;;;;;;5060679;28;20440;-88
2023/03/11 12:51:04;;;;;;;4.67;3.00;;;8.90;38.50;;;;;;5031089;28;20443;-87
2023/03/11 12:53:45;;;;;;;1.77;1.60;;;9.00;39.00;;;;;;5029328;28;20566;-89
2023/03/11 12:56:28;;;;;;;3.20;2.00;;;8.90;38.00;;;;;;5020847;28;20459;-87
2023/03/11 12:59:22;;;;;;;3.10;2.30;;;8.80;38.70;;;;;;5039228;28;20565;-88
2023/03/11 13:01:57;;;;;;;3.23;1.77;;;8.80;39.20;;;;;;5025065;28;20623;-88
2023/03/11 13:04:39;;;;;;;3.70;2.60;;;8.80;38.50;;;;;;5042770;28;20479;-87
2023/03/11 13:07:42;;;;;;;4.03;2.47;;;8.90;39.10;;;;;;5022463;28;21077;-89
2023/03/11 13:10:20;;;;;;;6.07;3.40;;;8.90;39.10;;;;;;5054966;28;20438;-89